Time,TemperatureF,DewpointF,PressureIn,WindDirection,WindDirectionDegrees,WindSpeedMPH,WindSpeedGustMPH,Humidity,HourlyPrecipIn,Conditions,Clouds,dailyrainin,SolarRadiationWatts/m^2,SoftwareType,DateUTC
2013-09-21 00:14:00,58.9,56.0,29.98,NNW,333,0.0,2.0,89,0.00,,,0.00,0,weatherlink.com 1.10,2013-09-21 04:14:00,
2013-09-21 00:29:00,58.4,56.0,29.98,NNW,333,0.0,1.0,90,0.00,,,0.00,0,weatherlink.com 1.10,2013-09-21 04:29:00,
2013-09-21 00:45:00,58.5,56.0,29.98,NNW,333,0.0,2.0,90,0.00,,,0.00,0,weatherlink.com 1.10,2013-09-21 04:45:00,
2013-09-21 00:59:00,58.0,55.0,29.98,NNW,333,0.0,1.0,90,0.00,,,0.00,0,weatherlink.com 1.10,2013-09-21 04:59:00,
2013-09-21 01:14:00,57.7,55.0,29.99,NNW,333,0.0,1.0,91,0.00,,,0.00,0,weatherlink.com 1.10,2013-09-21 05:14:00,
2013-09-21 01:29:00,57.4,55.0,29.99,NNW,333,0.0,1.0,92,0.00,,,0.00,0,weatherlink.com 1.10,2013-09-21 05:29:00,
2013-09-21 01:44:00,57.0,55.0,29.98,NNW,333,0.0,1.0,93,0.00,,,0.00,0,weatherlink.com 1.10,2013-09-21 05:44:00,
2013-09-21 01:59:00,56.9,55.0,29.98,NNW,333,0.0,1.0,93,0.00,,,0.00,0,weatherlink.com 1.10,2013-09-21 05:59:00,
2013-09-21 02:14:00,57.1,55.0,29.98,NNW,333,0.0,1.0,94,0.00,,,0.00,0,weatherlink.com 1.10,2013-09-21 06:14:00,
2013-09-21 02:31:00,56.9,55.0,29.98,NNW,333,0.0,1.0,94,0.00,,,0.00,0,weatherlink.com 1.10,2013-09-21 06:31:00,
2013-09-21 02:44:00,56.6,55.0,29.97,NNW,333,0.0,0.0,94,0.00,,,0.00,0,weatherlink.com 1.10,2013-09-21 06:44:00,
2013-09-21 02:59:00,56.4,55.0,29.97,NNW,333,0.0,0.0,95,0.00,,,0.00,0,weatherlink.com 1.10,2013-09-21 06:59:00,
2013-09-21 03:14:00,56.4,55.0,29.96,NNW,333,0.0,0.0,95,0.00,,,0.00,0,weatherlink.com 1.10,2013-09-21 07:14:00,
2013-09-21 03:29:00,55.9,55.0,29.95,NNW,333,0.0,0.0,95,0.00,,,0.00,0,weatherlink.com 1.10,2013-09-21 07:29:00,
2013-09-21 03:44:00,55.7,55.0,29.95,NNW,333,0.0,0.0,96,0.00,,,0.00,0,weatherlink.com 1.10,2013-09-21 07:44:00,
2013-09-21 03:59:00,55.5,54.0,29.95,NNW,333,0.0,0.0,96,0.00,,,0.00,0,weatherlink.com 1.10,2013-09-21 07:59:00,
2013-09-21 04:14:00,55.5,54.0,29.95,NNW,333,0.0,2.0,96,0.00,,,0.00,0,weatherlink.com 1.10,2013-09-21 08:14:00,
2013-09-21 04:29:00,55.5,54.0,29.95,NNW,333,0.0,2.0,96,0.00,,,0.00,0,weatherlink.com 1.10,2013-09-21 08:29:00,
2013-09-21 04:44:00,55.9,55.0,29.95,NNE,12,0.0,1.0,96,0.00,,,0.00,0,weatherlink.com 1.10,2013-09-21 08:44:00,
2013-09-21 04:59:00,55.8,55.0,29.95,NNE,12,0.0,0.0,96,0.00,,,0.00,0,weatherlink.com 1.10,2013-09-21 08:59:00,
2013-09-21 05:14:00,55.2,54.0,29.95,NNE,12,0.0,0.0,96,0.00,,,0.00,0,weatherlink.com 1.10,2013-09-21 09:14:00,
2013-09-21 05:29:00,55.1,54.0,29.95,NNE,12,0.0,1.0,96,0.00,,,0.00,0,weatherlink.com 1.10,2013-09-21 09:29:00,
2013-09-21 05:44:00,55.3,55.0,29.95,South,189,0.0,1.0,97,0.00,,,0.00,0,weatherlink.com 1.10,2013-09-21 09:44:00,
2013-09-21 05:59:00,54.9,54.0,29.94,South,189,0.0,0.0,97,0.00,,,0.00,0,weatherlink.com 1.10,2013-09-21 09:59:00,
2013-09-21 06:14:00,55.0,54.0,29.95,South,189,0.0,0.0,97,0.00,,,0.00,0,weatherlink.com 1.10,2013-09-21 10:14:00,
2013-09-21 06:29:00,55.0,54.0,29.95,NW,304,0.0,1.0,97,0.00,,,0.00,0,weatherlink.com 1.10,2013-09-21 10:29:00,
2013-09-21 06:44:00,55.3,55.0,29.95,NW,325,0.0,1.0,97,0.00,,,0.00,0,weatherlink.com 1.10,2013-09-21 10:44:00,
2013-09-21 06:59:00,55.6,55.0,29.95,NW,306,0.0,1.0,97,0.00,,,0.00,7,weatherlink.com 1.10,2013-09-21 10:59:00,
2013-09-21 07:14:00,55.9,55.0,29.95,NW,306,0.0,1.0,97,0.00,,,0.00,14,weatherlink.com 1.10,2013-09-21 11:14:00,
2013-09-21 07:29:00,56.6,56.0,29.94,NNW,346,0.0,3.0,97,0.00,,,0.00,18,weatherlink.com 1.10,2013-09-21 11:29:00,
2013-09-21 07:44:00,57.1,56.0,29.94,North,355,0.0,2.0,97,0.00,,,0.00,42,weatherlink.com 1.10,2013-09-21 11:44:00,
2013-09-21 07:59:00,57.6,57.0,29.94,SSE,168,0.0,3.0,96,0.00,,,0.00,39,weatherlink.com 1.10,2013-09-21 11:59:00,
2013-09-21 08:14:00,58.5,57.0,29.93,NE,44,0.0,3.0,95,0.00,,,0.00,63,weatherlink.com 1.10,2013-09-21 12:14:00,
2013-09-21 08:29:00,59.3,58.0,29.93,NNW,332,0.0,3.0,94,0.00,,,0.00,77,weatherlink.com 1.10,2013-09-21 12:29:00,
2013-09-21 08:44:00,60.4,58.0,29.92,South,173,0.0,4.0,92,0.00,,,0.00,97,weatherlink.com 1.10,2013-09-21 12:44:00,
2013-09-21 08:59:00,61.0,58.0,29.92,North,5,2.0,5.0,89,0.00,,,0.00,127,weatherlink.com 1.10,2013-09-21 12:59:00,
2013-09-21 09:14:00,61.4,58.0,29.92,WSW,255,2.0,7.0,87,0.00,,,0.00,141,weatherlink.com 1.10,2013-09-21 13:14:00,
2013-09-21 09:29:00,62.0,58.0,29.91,NNE,13,0.0,3.0,86,0.00,,,0.00,153,weatherlink.com 1.10,2013-09-21 13:29:00,
2013-09-21 09:45:00,63.0,58.0,29.91,WNW,294,1.0,4.0,84,0.00,,,0.00,176,weatherlink.com 1.10,2013-09-21 13:45:00,
2013-09-21 10:00:00,62.8,58.0,29.90,NW,315,2.0,7.0,83,0.00,,,0.00,100,weatherlink.com 1.10,2013-09-21 14:00:00,
2013-09-21 10:15:00,63.9,58.0,29.90,NNW,338,0.0,4.0,81,0.00,,,0.00,536,weatherlink.com 1.10,2013-09-21 14:15:00,
2013-09-21 10:30:00,64.8,58.0,29.89,NW,318,0.0,5.0,78,0.00,,,0.00,615,weatherlink.com 1.10,2013-09-21 14:30:00,
2013-09-21 10:45:00,65.2,59.0,29.89,SSE,163,1.0,6.0,80,0.00,,,0.00,647,weatherlink.com 1.10,2013-09-21 14:45:00,
2013-09-21 11:00:00,65.5,59.0,29.88,NNW,331,2.0,6.0,79,0.00,,,0.00,267,weatherlink.com 1.10,2013-09-21 15:00:00,
2013-09-21 11:15:00,66.9,59.0,29.87,North,355,0.0,5.0,77,0.00,,,0.00,684,weatherlink.com 1.10,2013-09-21 15:15:00,
2013-09-21 11:30:00,67.3,59.0,29.86,North,5,3.0,7.0,75,0.00,,,0.00,675,weatherlink.com 1.10,2013-09-21 15:30:00,
2013-09-21 11:45:00,67.5,60.0,29.86,NNW,338,1.0,6.0,76,0.00,,,0.00,506,weatherlink.com 1.10,2013-09-21 15:45:00,
2013-09-21 12:00:00,68.1,60.0,29.85,NNW,339,3.0,8.0,75,0.00,,,0.00,726,weatherlink.com 1.10,2013-09-21 16:00:00,
2013-09-21 12:15:00,69.4,60.0,29.85,NE,45,4.0,8.0,72,0.00,,,0.00,707,weatherlink.com 1.10,2013-09-21 16:15:00,
2013-09-21 12:30:00,70.5,61.0,29.84,NNW,330,2.0,6.0,71,0.00,,,0.00,782,weatherlink.com 1.10,2013-09-21 16:30:00,
2013-09-21 12:45:00,70.9,61.0,29.83,NNW,346,1.0,7.0,71,0.00,,,0.00,812,weatherlink.com 1.10,2013-09-21 16:45:00,
2013-09-21 13:00:00,70.4,61.0,29.83,WNW,302,0.0,7.0,72,0.00,,,0.00,823,weatherlink.com 1.10,2013-09-21 17:00:00,
2013-09-21 13:15:00,71.8,62.0,29.82,ENE,59,1.0,8.0,72,0.00,,,0.00,803,weatherlink.com 1.10,2013-09-21 17:15:00,
2013-09-21 13:32:00,71.3,62.0,29.81,West,265,1.0,7.0,73,0.00,,,0.00,793,weatherlink.com 1.10,2013-09-21 17:32:00,
2013-09-21 13:45:00,71.6,63.0,29.80,WSW,242,1.0,9.0,73,0.00,,,0.00,770,weatherlink.com 1.10,2013-09-21 17:45:00,
2013-09-21 14:00:00,72.0,63.0,29.79,NW,313,1.0,8.0,73,0.00,,,0.00,766,weatherlink.com 1.10,2013-09-21 18:00:00,
2013-09-21 14:15:00,72.1,63.0,29.79,NNW,333,3.0,9.0,74,0.00,,,0.00,763,weatherlink.com 1.10,2013-09-21 18:15:00,
2013-09-21 14:30:00,72.3,64.0,29.78,NNW,331,2.0,4.0,74,0.00,,,0.00,742,weatherlink.com 1.10,2013-09-21 18:30:00,
2013-09-21 14:45:00,73.1,64.0,29.77,NW,324,2.0,5.0,74,0.00,,,0.00,680,weatherlink.com 1.10,2013-09-21 18:45:00,
2013-09-21 15:00:00,71.8,64.0,29.76,NNW,345,1.0,4.0,76,0.00,,,0.00,679,weatherlink.com 1.10,2013-09-21 19:00:00,
2013-09-21 15:15:00,71.2,64.0,29.76,North,350,0.0,3.0,78,0.00,,,0.00,47,weatherlink.com 1.10,2013-09-21 19:15:00,
2013-09-21 15:30:00,71.5,64.0,29.75,ENE,58,0.0,3.0,77,0.00,,,0.00,158,weatherlink.com 1.10,2013-09-21 19:30:00,
2013-09-21 15:46:00,72.4,64.0,29.73,NW,323,1.0,3.0,76,0.00,,,0.00,485,weatherlink.com 1.10,2013-09-21 19:46:00,
2013-09-21 16:01:00,72.9,65.0,29.73,North,355,0.0,4.0,75,0.00,,,0.00,111,weatherlink.com 1.10,2013-09-21 20:01:00,
2013-09-21 16:16:00,71.3,64.0,29.72,NE,55,0.0,3.0,78,0.00,,,0.00,100,weatherlink.com 1.10,2013-09-21 20:16:00,
2013-09-21 16:31:00,71.1,65.0,29.72,WNW,294,0.0,2.0,80,0.00,,,0.00,107,weatherlink.com 1.10,2013-09-21 20:31:00,
2013-09-21 16:46:00,71.2,65.0,29.71,WNW,298,0.0,2.0,80,0.00,,,0.00,156,weatherlink.com 1.10,2013-09-21 20:46:00,
2013-09-21 17:01:00,71.2,65.0,29.71,North,5,0.0,2.0,81,0.00,,,0.00,74,weatherlink.com 1.10,2013-09-21 21:01:00,
2013-09-21 17:16:00,70.4,65.0,29.70,East,97,0.0,1.0,83,0.00,,,0.00,56,weatherlink.com 1.10,2013-09-21 21:16:00,
2013-09-21 17:31:00,70.5,65.0,29.70,North,355,0.0,3.0,83,0.00,,,0.00,35,weatherlink.com 1.10,2013-09-21 21:31:00,
2013-09-21 17:46:00,70.8,65.0,29.69,North,355,0.0,2.0,81,0.00,,,0.00,21,weatherlink.com 1.10,2013-09-21 21:46:00,
2013-09-21 18:01:00,70.9,64.0,29.69,NW,324,1.0,5.0,78,0.00,,,0.00,19,weatherlink.com 1.10,2013-09-21 22:01:00,
2013-09-21 18:16:00,70.7,64.0,29.69,NNW,327,0.0,3.0,78,0.00,,,0.00,26,weatherlink.com 1.10,2013-09-21 22:16:00,
2013-09-21 18:31:00,69.9,63.0,29.68,NNW,348,5.0,5.0,79,0.00,,,0.00,16,weatherlink.com 1.10,2013-09-21 22:31:00,
2013-09-21 18:46:00,69.4,63.0,29.67,NNW,333,0.0,6.0,80,0.00,,,0.00,0,weatherlink.com 1.10,2013-09-21 22:46:00,
2013-09-21 19:01:00,69.2,63.0,29.68,NW,317,0.0,4.0,80,0.00,,,0.00,0,weatherlink.com 1.10,2013-09-21 23:01:00,
2013-09-21 19:16:00,68.9,63.0,29.67,NNW,331,1.0,4.0,82,0.00,,,0.00,0,weatherlink.com 1.10,2013-09-21 23:16:00,
2013-09-21 19:31:00,68.9,63.0,29.67,NNW,348,1.0,4.0,82,0.00,,,0.00,0,weatherlink.com 1.10,2013-09-21 23:31:00,
2013-09-21 19:46:00,68.9,64.0,29.68,NW,312,1.0,5.0,83,0.00,,,0.00,0,weatherlink.com 1.10,2013-09-21 23:46:00,
2013-09-21 20:01:00,68.7,63.0,29.68,NNE,13,1.0,3.0,83,0.00,,,0.00,0,weatherlink.com 1.10,2013-09-22 00:01:00,
2013-09-21 20:16:00,68.5,64.0,29.68,NNW,346,0.0,4.0,84,0.00,,,0.00,0,weatherlink.com 1.10,2013-09-22 00:16:00,
2013-09-21 20:31:00,68.8,64.0,29.68,NNW,329,0.0,3.0,83,0.00,,,0.00,0,weatherlink.com 1.10,2013-09-22 00:31:00,
2013-09-21 20:46:00,68.7,64.0,29.67,NNW,329,1.0,3.0,84,0.00,,,0.00,0,weatherlink.com 1.10,2013-09-22 00:46:00,
2013-09-21 21:01:00,68.6,64.0,29.67,North,360,0.0,4.0,85,0.00,,,0.00,0,weatherlink.com 1.10,2013-09-22 01:01:00,
2013-09-21 21:16:00,66.9,64.0,29.67,NNW,345,0.0,5.0,90,0.05,,,0.05,0,weatherlink.com 1.10,2013-09-22 01:16:00,
2013-09-21 21:31:00,66.0,64.0,29.67,West,281,0.0,3.0,93,0.22,,,0.22,0,weatherlink.com 1.10,2013-09-22 01:31:00,
2013-09-21 21:46:00,65.6,64.0,29.67,NNW,327,1.0,1.0,95,0.33,,,0.33,0,weatherlink.com 1.10,2013-09-22 01:46:00,
2013-09-21 22:01:00,65.6,64.0,29.66,NNW,341,0.0,3.0,95,0.34,,,0.34,0,weatherlink.com 1.10,2013-09-22 02:01:00,
2013-09-21 22:16:00,65.5,64.0,29.66,NNW,331,0.0,1.0,96,0.30,,,0.35,0,weatherlink.com 1.10,2013-09-22 02:16:00,
2013-09-21 22:31:00,65.5,64.0,29.65,NNW,331,0.0,1.0,96,0.16,,,0.38,0,weatherlink.com 1.10,2013-09-22 02:31:00,
2013-09-21 22:46:00,65.3,65.0,29.64,SSE,161,0.0,3.0,97,0.14,,,0.48,0,weatherlink.com 1.10,2013-09-22 02:46:00,
2013-09-21 23:01:00,65.3,65.0,29.63,SSW,205,0.0,0.0,97,0.16,,,0.50,0,weatherlink.com 1.10,2013-09-22 03:01:00,
2013-09-21 23:16:00,65.3,65.0,29.63,NW,318,0.0,2.0,97,0.16,,,0.51,0,weatherlink.com 1.10,2013-09-22 03:16:00,
2013-09-21 23:31:00,65.4,65.0,29.63,NW,319,0.0,2.0,97,0.16,,,0.55,0,weatherlink.com 1.10,2013-09-22 03:31:00,
2013-09-21 23:46:00,65.5,65.0,29.63,NNW,337,0.0,2.0,97,0.09,,,0.57,0,weatherlink.com 1.10,2013-09-22 03:46:00,